Time;durP1;ratioP1;P1;durP2;ratioP2;P2;SDS_P1;SDS_P2;PMS_P1;PMS_P2;Temp;Humidity;BMP_temperature;BMP_pressure;BME280_temperature;BME280_humidity;BME280_pressure;Samples;Min_cycle;Max_cycle;Signal;HPM_P1;HPM_P2
2021/11/30 00:02:03;;;;;;;23.90;18.30;;;22.90;77.10;;;;;;1888896;75;21995;-81
2021/11/30 00:04:34;;;;;;;24.77;17.45;;;22.90;77.00;;;;;;1926578;73;21118;-82
2021/11/30 00:07:05;;;;;;;23.35;16.73;;;23.00;76.80;;;;;;1903280;74;21780;-81
2021/11/30 00:12:08;;;;;;;27.30;17.25;;;23.00;76.90;;;;;;1893522;74;21220;-82
2021/11/30 00:14:41;;;;;;;29.07;17.98;;;23.00;76.60;;;;;;1921648;73;21190;-82
2021/11/30 00:17:13;;;;;;;28.15;17.62;;;23.00;76.40;;;;;;1896919;74;21177;-82
2021/11/30 00:19:45;;;;;;;23.07;16.17;;;23.00;76.30;;;;;;1903642;74;21377;-82
2021/11/30 00:22:19;;;;;;;26.42;17.40;;;23.00;76.40;;;;;;1910984;73;21036;-79
2021/11/30 00:24:52;;;;;;;27.55;18.20;;;23.00;76.30;;;;;;1927913;73;22157;-72
2021/11/30 00:27:22;;;;;;;26.90;18.30;;;23.00;76.40;;;;;;1929880;74;21712;-70
2021/11/30 00:29:55;;;;;;;69.55;24.55;;;23.10;76.60;;;;;;1926441;73;21174;-70
2021/11/30 00:32:26;;;;;;;36.42;21.30;;;23.00;76.50;;;;;;1923452;73;21169;-71
2021/11/30 00:34:57;;;;;;;27.30;19.60;;;23.10;76.60;;;;;;1927431;73;21154;-72
2021/11/30 00:37:28;;;;;;;28.62;19.25;;;23.10;76.40;;;;;;1872418;74;21092;-70
2021/11/30 00:39:59;;;;;;;28.67;19.12;;;23.10;76.60;;;;;;1888297;74;21084;-71
2021/11/30 00:42:29;;;;;;;28.98;18.67;;;23.10;76.50;;;;;;1932165;73;21088;-70
2021/11/30 00:45:01;;;;;;;31.97;19.02;;;23.10;76.60;;;;;;1888909;76;21135;-69
2021/11/30 00:47:33;;;;;;;27.62;19.45;;;23.10;76.40;;;;;;1913424;74;21092;-70
2021/11/30 00:50:07;;;;;;;28.20;19.42;;;23.20;76.30;;;;;;1929912;73;21108;-69
2021/11/30 00:52:38;;;;;;;29.48;19.20;;;23.20;76.20;;;;;;1928358;73;21100;-69
2021/11/30 00:55:09;;;;;;;29.48;18.25;;;23.20;76.20;;;;;;1923486;73;21123;-69
2021/11/30 00:57:41;;;;;;;26.93;17.55;;;23.20;75.80;;;;;;1928530;73;21161;-69
2021/11/30 01:00:14;;;;;;;28.75;17.98;;;23.30;75.90;;;;;;1928317;73;22012;-69
2021/11/30 01:02:46;;;;;;;26.27;18.37;;;23.30;75.90;;;;;;1934683;73;21134;-70
2021/11/30 01:05:18;;;;;;;23.60;17.70;;;23.40;75.80;;;;;;1934561;73;21123;-69
2021/11/30 01:07:50;;;;;;;24.10;17.17;;;23.50;75.30;;;;;;1885325;74;21121;-69
2021/11/30 01:10:23;;;;;;;26.87;16.05;;;23.60;75.30;;;;;;1914766;73;21174;-69
2021/11/30 01:12:54;;;;;;;23.73;16.57;;;23.70;74.40;;;;;;1939192;73;21077;-69
2021/11/30 01:15:26;;;;;;;24.87;15.50;;;23.80;73.50;;;;;;1928355;73;21108;-69
2021/11/30 01:17:57;;;;;;;21.87;15.65;;;23.90;73.20;;;;;;1918368;73;21121;-69
2021/11/30 01:20:28;;;;;;;32.85;14.85;;;23.90;72.90;;;;;;1898607;74;21163;-68
2021/11/30 01:22:59;;;;;;;24.15;13.88;;;23.90;72.70;;;;;;1926873;73;21119;-70
2021/11/30 01:25:30;;;;;;;21.75;14.63;;;24.00;72.90;;;;;;1891386;74;21682;-68
2021/11/30 01:28:01;;;;;;;21.77;14.30;;;24.10;72.80;;;;;;1930153;73;21180;-69
2021/11/30 01:30:32;;;;;;;19.95;14.03;;;24.10;71.10;;;;;;1918417;73;21193;-70
2021/11/30 01:33:06;;;;;;;23.18;15.48;;;24.20;71.20;;;;;;1945262;72;21590;-70
2021/11/30 01:35:36;;;;;;;21.48;15.18;;;24.20;71.50;;;;;;1939911;72;21177;-69
2021/11/30 01:38:07;;;;;;;22.93;15.75;;;24.20;70.80;;;;;;1940320;73;21785;-68
2021/11/30 01:40:38;;;;;;;23.65;15.65;;;24.20;71.20;;;;;;1926980;73;21567;-69
2021/11/30 01:43:15;;;;;;;25.25;16.15;;;24.30;71.40;;;;;;1941720;73;21794;-70
2021/11/30 01:45:57;;;;;;;25.85;16.25;;;24.30;71.60;;;;;;1917311;73;21539;-70
2021/11/30 01:50:47;;;;;;;21.30;15.10;;;24.40;71.10;;;;;;1933268;72;21143;-69
2021/11/30 01:53:19;;;;;;;20.32;14.78;;;24.40;71.30;;;;;;1923436;74;21165;-68
2021/11/30 01:55:50;;;;;;;20.45;14.68;;;24.40;71.60;;;;;;1937380;73;21174;-70
2021/11/30 01:58:23;;;;;;;24.85;14.60;;;24.50;71.40;;;;;;1936196;73;21108;-69
2021/11/30 02:00:54;;;;;;;21.90;13.98;;;24.50;70.80;;;;;;1899135;75;21580;-69
2021/11/30 02:03:26;;;;;;;29.00;15.10;;;24.60;69.80;;;;;;1927615;73;21596;-70
2021/11/30 02:05:57;;;;;;;23.85;14.63;;;24.60;70.00;;;;;;1892574;75;21049;-69
2021/11/30 02:08:28;;;;;;;20.08;14.03;;;24.70;69.80;;;;;;1856836;76;21069;-70
2021/11/30 02:10:59;;;;;;;21.50;15.45;;;24.80;69.90;;;;;;1856339;75;22224;-69
2021/11/30 02:13:31;;;;;;;25.08;15.23;;;24.80;69.80;;;;;;1893525;75;21119;-69
2021/11/30 02:16:03;;;;;;;21.55;14.53;;;24.90;69.80;;;;;;1857137;76;21167;-69
2021/11/30 02:18:41;;;;;;;19.67;13.22;;;24.90;69.10;;;;;;1870173;76;21131;-69
2021/11/30 02:21:07;;;;;;;19.92;14.80;;;25.00;69.30;;;;;;1867321;76;21620;-69
2021/11/30 02:23:46;;;;;;;25.82;14.28;;;25.00;68.70;;;;;;1853414;75;21179;-69
2021/11/30 02:26:13;;;;;;;19.32;14.35;;;25.10;68.60;;;;;;1855101;76;21167;-69
2021/11/30 02:28:47;;;;;;;20.85;13.35;;;25.10;67.80;;;;;;1920155;73;21139;-68
2021/11/30 02:31:20;;;;;;;20.88;13.32;;;25.20;66.60;;;;;;1934005;73;21080;-71
2021/11/30 02:33:53;;;;;;;18.07;13.13;;;25.20;65.90;;;;;;1920213;73;21626;-72
2021/11/30 02:36:29;;;;;;;19.52;12.68;;;25.20;66.10;;;;;;1936790;74;21183;-71
2021/11/30 02:39:17;;;;;;;18.98;12.63;;;25.30;66.00;;;;;;1939866;73;21123;-70
2021/11/30 02:41:49;;;;;;;18.37;13.38;;;25.40;65.90;;;;;;1865519;76;21131;-70
2021/11/30 02:44:27;;;;;;;17.37;12.53;;;25.40;66.00;;;;;;1851398;76;21571;-69
2021/11/30 02:46:57;;;;;;;18.95;11.97;;;25.50;66.00;;;;;;1879252;74;21491;-69
2021/11/30 02:49:30;;;;;;;17.02;12.40;;;25.50;64.50;;;;;;1881429;74;21563;-71
2021/11/30 02:52:06;;;;;;;22.07;12.23;;;25.60;64.90;;;;;;1846352;76;21658;-71
2021/11/30 02:54:41;;;;;;;21.62;12.47;;;25.70;64.30;;;;;;1879739;75;21143;-70
2021/11/30 02:57:14;;;;;;;17.07;11.12;;;25.80;64.20;;;;;;1888192;74;21712;-71
2021/11/30 02:59:47;;;;;;;16.87;11.30;;;25.90;62.40;;;;;;1880300;74;21227;-72
2021/11/30 03:02:19;;;;;;;15.80;11.38;;;25.90;61.70;;;;;;1881431;74;21624;-72
2021/11/30 03:04:52;;;;;;;19.37;11.40;;;26.00;61.40;;;;;;1892302;74;21106;-72
2021/11/30 03:07:25;;;;;;;18.20;11.30;;;26.10;60.90;;;;;;1890117;74;21166;-72
2021/11/30 03:09:58;;;;;;;14.33;10.82;;;26.20;60.40;;;;;;1885388;74;21127;-71
2021/11/30 03:12:29;;;;;;;16.07;10.68;;;26.30;59.30;;;;;;1861959;75;21112;-72
2021/11/30 03:14:59;;;;;;;15.85;10.30;;;26.40;58.90;;;;;;1881113;75;22155;-70
2021/11/30 03:17:30;;;;;;;14.33;10.68;;;26.50;58.00;;;;;;1890862;74;21205;-71
2021/11/30 03:20:01;;;;;;;13.55;10.35;;;26.50;57.90;;;;;;1888031;74;21127;-72
2021/11/30 03:22:32;;;;;;;13.88;9.98;;;26.60;57.40;;;;;;1891531;74;21563;-72
2021/11/30 03:25:03;;;;;;;16.25;9.95;;;26.70;56.70;;;;;;1883904;74;21113;-73
2021/11/30 03:27:35;;;;;;;15.25;11.50;;;26.70;57.10;;;;;;1880119;74;21679;-72
2021/11/30 03:30:08;;;;;;;17.10;10.60;;;26.80;55.80;;;;;;1888972;74;21135;-74
2021/11/30 03:35:12;;;;;;;17.92;10.98;;;26.80;55.60;;;;;;1889488;74;21166;-73
2021/11/30 03:37:44;;;;;;;17.07;11.03;;;26.90;55.20;;;;;;1854088;75;21143;-71
2021/11/30 03:40:14;;;;;;;17.12;10.70;;;27.10;55.20;;;;;;1878586;76;21151;-71
2021/11/30 03:42:47;;;;;;;15.00;10.10;;;27.10;54.80;;;;;;1852535;76;21433;-72
2021/11/30 03:45:19;;;;;;;15.60;10.50;;;27.20;54.90;;;;;;1838969;76;21135;-71
2021/11/30 03:47:50;;;;;;;14.47;10.32;;;27.30;54.40;;;;;;1857696;76;22467;-71
2021/11/30 03:50:21;;;;;;;17.52;10.82;;;27.40;54.10;;;;;;1861903;76;21210;-73
2021/11/30 03:52:52;;;;;;;22.70;11.60;;;27.50;53.40;;;;;;1851850;76;21198;-74
2021/11/30 03:55:24;;;;;;;22.98;11.68;;;27.60;52.50;;;;;;1859377;76;21132;-73
2021/11/30 03:57:56;;;;;;;19.70;11.35;;;27.70;52.50;;;;;;1847194;76;21147;-72
2021/11/30 04:00:27;;;;;;;21.90;11.22;;;27.90;51.80;;;;;;1845522;76;21119;-70
2021/11/30 04:02:59;;;;;;;20.23;10.82;;;28.00;52.10;;;;;;1851202;76;21182;-72
2021/11/30 04:05:30;;;;;;;18.10;10.40;;;28.20;51.00;;;;;;1852955;76;21141;-73
2021/11/30 04:08:00;;;;;;;22.20;11.88;;;28.30;50.40;;;;;;1858952;76;21252;-71
2021/11/30 04:10:34;;;;;;;19.55;11.57;;;28.30;50.70;;;;;;1853032;76;21094;-69
2021/11/30 04:13:05;;;;;;;17.12;11.22;;;28.40;50.40;;;;;;1819758;77;21125;-69
2021/11/30 04:15:37;;;;;;;17.55;10.98;;;28.30;50.40;;;;;;1846028;76;21697;-69
2021/11/30 04:18:08;;;;;;;17.30;10.90;;;28.30;50.60;;;;;;1849151;75;21705;-69
2021/11/30 04:20:39;;;;;;;18.50;12.10;;;28.20;50.80;;;;;;1864421;75;21115;-69
2021/11/30 04:23:11;;;;;;;16.57;10.82;;;28.20;51.30;;;;;;1911658;73;21075;-71
2021/11/30 04:25:42;;;;;;;16.50;10.72;;;28.20;50.50;;;;;;1913718;73;21172;-70
2021/11/30 04:28:13;;;;;;;17.00;10.63;;;28.20;51.00;;;;;;1938328;73;21126;-69
2021/11/30 04:30:44;;;;;;;20.43;11.20;;;28.30;51.00;;;;;;1879494;75;21233;-69
2021/11/30 04:33:15;;;;;;;19.82;12.23;;;28.30;50.70;;;;;;1913819;73;21687;-69
2021/11/30 04:35:46;;;;;;;17.62;11.45;;;28.30;51.40;;;;;;1911771;74;21211;-70
2021/11/30 04:38:17;;;;;;;17.67;11.68;;;28.30;51.00;;;;;;1917912;74;21156;-71
2021/11/30 04:40:48;;;;;;;15.83;10.98;;;28.30;50.60;;;;;;1922163;73;21235;-71
2021/11/30 04:43:20;;;;;;;18.00;11.93;;;28.40;50.10;;;;;;1921161;73;21255;-72
2021/11/30 04:48:24;;;;;;;20.52;12.28;;;28.40;50.00;;;;;;1916719;74;21126;-70
2021/11/30 04:50:57;;;;;;;24.15;11.90;;;28.40;50.10;;;;;;1914677;74;21076;-71
2021/11/30 04:53:28;;;;;;;17.45;11.78;;;28.40;49.90;;;;;;1910281;74;21637;-69
2021/11/30 04:56:01;;;;;;;18.98;11.30;;;28.40;50.00;;;;;;1916402;74;21132;-69
2021/11/30 04:58:32;;;;;;;19.10;12.23;;;28.40;49.90;;;;;;1943554;73;21181;-70
2021/11/30 05:01:02;;;;;;;19.75;11.48;;;28.30;50.00;;;;;;1929294;73;21573;-69
2021/11/30 05:03:34;;;;;;;20.23;12.20;;;28.30;50.40;;;;;;1916535;73;21192;-69
2021/11/30 05:06:06;;;;;;;17.85;10.65;;;28.30;49.90;;;;;;1905589;74;21540;-70
2021/11/30 05:08:37;;;;;;;14.18;10.68;;;28.30;49.90;;;;;;1915632;74;21520;-70
2021/11/30 05:11:07;;;;;;;18.70;10.03;;;28.20;49.90;;;;;;1926863;73;21119;-70
2021/11/30 05:13:38;;;;;;;21.33;10.75;;;28.30;48.40;;;;;;1930293;73;21072;-70
2021/11/30 05:16:09;;;;;;;16.82;9.90;;;28.30;48.90;;;;;;1949668;73;21125;-70
2021/11/30 05:18:42;;;;;;;13.70;9.88;;;28.30;48.60;;;;;;1942290;73;21494;-70
2021/11/30 05:21:13;;;;;;;17.20;10.08;;;28.30;48.40;;;;;;1877810;75;21123;-70
2021/11/30 05:23:45;;;;;;;15.25;9.15;;;28.30;48.90;;;;;;1892172;75;21678;-70
2021/11/30 05:26:16;;;;;;;14.35;9.40;;;28.30;48.90;;;;;;1935526;73;21189;-70
2021/11/30 05:28:47;;;;;;;14.78;9.75;;;28.30;47.80;;;;;;1921469;74;21135;-70
2021/11/30 05:31:18;;;;;;;16.27;9.93;;;28.30;48.60;;;;;;1932546;72;21099;-70
2021/11/30 05:33:49;;;;;;;16.70;9.05;;;28.30;48.60;;;;;;1940891;73;21173;-70
2021/11/30 05:36:21;;;;;;;15.43;9.68;;;28.30;49.20;;;;;;1931803;74;21145;-70
2021/11/30 05:38:52;;;;;;;15.23;9.28;;;28.30;48.50;;;;;;1952182;73;21042;-70
2021/11/30 05:41:22;;;;;;;15.38;9.13;;;28.30;48.30;;;;;;1964190;73;21216;-71
2021/11/30 05:43:56;;;;;;;16.82;9.23;;;28.30;48.40;;;;;;1961933;71;21673;-72
2021/11/30 05:46:27;;;;;;;19.95;9.63;;;28.30;48.70;;;;;;1919972;74;21080;-71
2021/11/30 05:48:58;;;;;;;14.43;9.03;;;28.30;48.20;;;;;;1967533;71;21118;-69
2021/11/30 05:51:30;;;;;;;15.43;9.15;;;28.30;48.20;;;;;;1961899;71;21476;-69
2021/11/30 05:54:01;;;;;;;11.08;8.55;;;28.30;48.20;;;;;;1966037;72;21196;-69
2021/11/30 05:56:31;;;;;;;15.80;8.88;;;28.30;48.30;;;;;;1965519;73;21644;-69
2021/11/30 05:59:03;;;;;;;13.15;9.00;;;28.30;49.10;;;;;;1961475;71;21204;-70
2021/11/30 06:01:35;;;;;;;10.70;7.33;;;28.40;49.20;;;;;;1966011;73;21126;-69
2021/11/30 06:04:06;;;;;;;14.03;9.35;;;28.40;48.20;;;;;;1962078;71;21134;-69
2021/11/30 06:06:38;;;;;;;15.08;8.83;;;28.40;48.10;;;;;;1963369;71;21170;-69
2021/11/30 06:09:11;;;;;;;14.35;8.80;;;28.40;48.00;;;;;;1965888;73;21150;-70
2021/11/30 06:11:43;;;;;;;14.35;9.20;;;28.40;48.00;;;;;;1963564;71;21072;-69
2021/11/30 06:14:14;;;;;;;13.55;8.80;;;28.40;48.30;;;;;;1960677;71;21046;-69
2021/11/30 06:16:44;;;;;;;16.95;9.05;;;28.40;48.10;;;;;;1929364;73;21124;-69
2021/11/30 06:19:18;;;;;;;13.22;8.48;;;28.50;47.90;;;;;;1965939;73;21181;-68
2021/11/30 06:21:49;;;;;;;13.38;9.00;;;28.50;47.90;;;;;;1965875;71;21151;-70
2021/11/30 06:24:20;;;;;;;16.67;9.10;;;28.50;48.50;;;;;;1948443;73;21218;-69
2021/11/30 06:26:51;;;;;;;18.40;9.85;;;28.60;48.20;;;;;;1922608;73;21540;-69
2021/11/30 06:29:22;;;;;;;14.60;9.08;;;28.70;47.90;;;;;;1961568;72;21167;-71
2021/11/30 06:31:53;;;;;;;14.25;9.05;;;28.80;48.00;;;;;;1951740;72;21106;-71
2021/11/30 06:34:24;;;;;;;16.30;9.58;;;28.90;48.00;;;;;;1959211;72;22004;-70
2021/11/30 06:36:55;;;;;;;15.08;9.33;;;29.00;47.40;;;;;;1956591;72;21120;-71
2021/11/30 06:39:26;;;;;;;13.83;8.18;;;29.10;47.20;;;;;;1955477;72;21181;-71
2021/11/30 06:41:57;;;;;;;15.75;9.48;;;29.10;47.10;;;;;;1968755;72;21072;-71
2021/11/30 06:44:31;;;;;;;15.18;8.53;;;29.10;47.10;;;;;;1960817;71;21085;-69
2021/11/30 06:47:00;;;;;;;18.02;10.08;;;29.00;47.50;;;;;;1964834;71;21201;-69
2021/11/30 06:49:33;;;;;;;17.12;9.85;;;29.00;47.90;;;;;;1960209;72;21191;-68
2021/11/30 06:52:05;;;;;;;13.53;9.18;;;29.00;47.50;;;;;;1965691;72;21217;-68
2021/11/30 06:54:42;;;;;;;14.45;9.08;;;29.00;47.70;;;;;;1950864;72;21166;-69
2021/11/30 06:57:08;;;;;;;18.10;9.33;;;29.00;48.00;;;;;;1970417;72;21100;-70
2021/11/30 06:59:40;;;;;;;11.50;9.55;;;28.90;47.90;;;;;;1958130;72;21365;-69
2021/11/30 07:02:13;;;;;;;17.42;9.55;;;28.90;47.70;;;;;;1949470;72;21127;-70
2021/11/30 07:04:47;;;;;;;13.25;8.83;;;28.90;47.80;;;;;;1944955;73;21568;-71
2021/11/30 07:15:01;;;;;;;13.83;9.25;;;28.80;48.50;;;;;;1951024;72;21205;-70
2021/11/30 07:17:32;;;;;;;14.20;9.23;;;28.90;48.40;;;;;;1942842;72;21179;-70
2021/11/30 07:20:04;;;;;;;16.23;9.55;;;28.90;48.60;;;;;;1967216;73;21182;-68
2021/11/30 07:22:35;;;;;;;17.07;9.50;;;28.90;49.00;;;;;;1956768;73;21084;-70
2021/11/30 07:25:06;;;;;;;14.18;9.03;;;28.90;48.50;;;;;;1948838;73;22281;-70
2021/11/30 07:27:37;;;;;;;16.35;9.65;;;28.90;48.50;;;;;;1957232;72;21112;-69
2021/11/30 07:30:08;;;;;;;18.95;9.95;;;28.90;48.80;;;;;;1950114;72;21113;-69
2021/11/30 07:32:39;;;;;;;15.20;9.90;;;28.80;49.00;;;;;;1929161;73;21144;-70
2021/11/30 07:35:10;;;;;;;14.95;9.15;;;28.80;49.20;;;;;;1930266;73;21516;-69
2021/11/30 07:37:41;;;;;;;16.12;9.60;;;28.70;48.90;;;;;;1948630;73;21171;-70
2021/11/30 07:40:12;;;;;;;13.32;9.95;;;28.80;49.00;;;;;;1953803;72;21068;-69
2021/11/30 07:43:02;;;;;;;16.73;9.68;;;28.70;49.40;;;;;;1943288;72;21190;-69
2021/11/30 07:45:36;;;;;;;16.85;10.35;;;28.70;49.90;;;;;;1934157;73;21678;-68
2021/11/30 07:48:06;;;;;;;13.83;9.25;;;28.70;50.20;;;;;;1879715;75;21133;-69
2021/11/30 07:50:37;;;;;;;15.63;10.40;;;28.70;50.30;;;;;;1877628;75;21168;-69
2021/11/30 07:53:08;;;;;;;18.60;10.48;;;28.70;49.90;;;;;;1916148;73;21071;-70
2021/11/30 07:55:43;;;;;;;19.75;10.23;;;28.70;50.30;;;;;;1913178;75;21127;-69
2021/11/30 07:58:14;;;;;;;20.12;10.53;;;28.70;50.00;;;;;;1915423;74;21224;-69
2021/11/30 08:00:44;;;;;;;14.65;10.75;;;28.70;50.50;;;;;;1918412;73;21179;-70
2021/11/30 08:03:15;;;;;;;13.65;9.70;;;28.70;50.70;;;;;;1913271;74;21138;-70
2021/11/30 08:05:47;;;;;;;23.30;9.63;;;28.70;50.70;;;;;;1914726;74;21052;-70
2021/11/30 08:08:18;;;;;;;16.55;10.23;;;28.70;50.60;;;;;;1916622;74;21914;-70
2021/11/30 08:10:49;;;;;;;13.62;10.03;;;28.70;50.30;;;;;;1921911;73;21587;-70
2021/11/30 08:13:20;;;;;;;15.25;9.83;;;28.70;50.50;;;;;;1882093;74;21116;-67
2021/11/30 08:15:51;;;;;;;14.73;9.83;;;28.70;50.90;;;;;;1871364;75;21714;-69
2021/11/30 08:18:23;;;;;;;14.90;10.28;;;28.70;50.30;;;;;;1899094;74;21179;-69
2021/11/30 08:20:56;;;;;;;18.07;10.00;;;28.60;50.50;;;;;;1833422;76;21223;-70
2021/11/30 08:23:28;;;;;;;12.82;9.60;;;28.60;50.60;;;;;;1839768;77;21205;-70
2021/11/30 08:25:59;;;;;;;15.65;9.63;;;28.60;50.70;;;;;;1918374;73;21397;-70
2021/11/30 08:28:30;;;;;;;16.15;10.63;;;28.60;50.60;;;;;;1887281;75;21153;-70
2021/11/30 08:31:02;;;;;;;14.20;10.08;;;28.60;50.60;;;;;;1841718;77;21522;-69
2021/11/30 08:33:33;;;;;;;16.60;9.95;;;28.60;50.80;;;;;;1892067;75;21242;-69
2021/11/30 08:36:04;;;;;;;14.80;10.23;;;28.60;51.00;;;;;;1916589;73;21598;-68
2021/11/30 08:38:36;;;;;;;14.80;9.75;;;28.60;51.40;;;;;;1912220;73;21123;-71
2021/11/30 08:41:08;;;;;;;16.17;10.10;;;28.50;51.10;;;;;;1913442;74;21137;-69
2021/11/30 08:43:39;;;;;;;18.07;10.88;;;28.50;51.60;;;;;;1906445;73;21130;-69
2021/11/30 08:46:10;;;;;;;16.10;9.78;;;28.50;51.70;;;;;;1901551;75;21197;-69
2021/11/30 08:48:40;;;;;;;13.78;9.95;;;28.50;51.80;;;;;;1915790;74;21171;-69
2021/11/30 08:51:11;;;;;;;16.32;10.50;;;28.50;51.70;;;;;;1898925;74;21136;-69
2021/11/30 08:53:42;;;;;;;15.05;10.13;;;28.50;51.90;;;;;;1888954;74;21242;-69
2021/11/30 08:56:14;;;;;;;15.38;10.43;;;28.50;52.20;;;;;;1813650;78;21232;-73
2021/11/30 08:58:45;;;;;;;17.25;10.25;;;28.50;52.50;;;;;;1835288;76;21163;-70
2021/11/30 09:01:16;;;;;;;15.80;9.90;;;28.50;52.10;;;;;;1856323;77;21056;-70
2021/11/30 09:03:47;;;;;;;13.58;9.95;;;28.40;51.80;;;;;;1874762;76;21195;-69
2021/11/30 09:06:19;;;;;;;16.73;10.48;;;28.40;51.70;;;;;;1910529;75;21143;-69
2021/11/30 09:08:50;;;;;;;16.48;10.32;;;28.40;51.70;;;;;;1933903;73;21147;-69
2021/11/30 09:11:22;;;;;;;16.02;11.03;;;28.30;51.90;;;;;;1934654;73;21740;-69
2021/11/30 09:13:54;;;;;;;16.80;11.53;;;28.30;52.10;;;;;;1903151;74;21155;-70
2021/11/30 09:16:27;;;;;;;16.77;10.55;;;28.30;52.30;;;;;;1875777;75;21152;-71
2021/11/30 09:19:00;;;;;;;21.77;11.60;;;28.40;52.80;;;;;;1831245;77;21086;-69
2021/11/30 09:21:31;;;;;;;18.32;11.28;;;28.40;52.80;;;;;;1840344;78;21074;-69
2021/11/30 09:24:04;;;;;;;17.67;10.75;;;28.30;53.00;;;;;;1916348;73;21143;-69
2021/11/30 09:26:35;;;;;;;17.98;11.95;;;28.30;53.20;;;;;;1914237;73;21121;-69
2021/11/30 09:29:11;;;;;;;21.75;12.00;;;28.30;53.30;;;;;;1928413;73;21141;-68
2021/11/30 09:31:39;;;;;;;16.67;11.57;;;28.30;53.30;;;;;;1919314;74;21577;-68
2021/11/30 09:34:11;;;;;;;15.10;11.85;;;28.20;53.00;;;;;;1910813;75;21125;-69
2021/11/30 09:36:45;;;;;;;18.50;12.03;;;28.30;53.20;;;;;;1912568;75;21205;-68
2021/11/30 09:39:14;;;;;;;17.62;10.98;;;28.30;52.60;;;;;;1916789;73;21129;-68
2021/11/30 09:41:46;;;;;;;18.10;11.83;;;28.30;52.70;;;;;;1914733;73;21084;-69
2021/11/30 09:44:17;;;;;;;18.67;11.90;;;28.20;52.70;;;;;;1914769;73;21622;-69
2021/11/30 09:46:51;;;;;;;17.17;11.80;;;28.20;52.60;;;;;;1906784;74;21634;-71
2021/11/30 09:49:23;;;;;;;20.12;13.45;;;28.30;53.00;;;;;;1819232;77;21125;-71
2021/11/30 09:51:54;;;;;;;21.55;13.55;;;28.20;53.10;;;;;;1847294;77;21153;-69
2021/11/30 09:54:25;;;;;;;21.80;13.83;;;28.20;53.10;;;;;;1906960;73;21080;-70
2021/11/30 09:56:55;;;;;;;20.48;12.95;;;28.20;53.40;;;;;;1922880;73;21135;-70
2021/11/30 09:59:26;;;;;;;22.00;13.30;;;28.20;53.50;;;;;;1926329;73;21170;-70
2021/11/30 10:02:00;;;;;;;19.23;14.40;;;28.20;53.30;;;;;;1912250;74;21440;-70
2021/11/30 10:04:32;;;;;;;21.07;15.15;;;28.20;53.40;;;;;;1911810;75;21074;-70
2021/11/30 10:07:02;;;;;;;21.85;15.85;;;28.20;53.60;;;;;;1911585;74;21253;-70
2021/11/30 10:09:33;;;;;;;30.60;19.52;;;28.10;53.50;;;;;;1914536;73;21075;-69
2021/11/30 10:12:06;;;;;;;30.55;23.42;;;28.10;53.70;;;;;;1927737;73;21150;-69
2021/11/30 10:14:39;;;;;;;33.67;24.85;;;28.10;53.80;;;;;;1921188;74;21091;-69
2021/11/30 10:17:11;;;;;;;29.37;19.98;;;28.10;54.20;;;;;;1910777;73;21097;-70
2021/11/30 10:19:45;;;;;;;27.20;18.67;;;28.00;54.40;;;;;;1918971;73;21091;-68
2021/11/30 10:22:17;;;;;;;25.23;15.72;;;28.00;54.70;;;;;;1909046;74;21508;-69
2021/11/30 10:24:48;;;;;;;24.02;16.05;;;27.90;54.90;;;;;;1886231;74;21134;-69
2021/11/30 10:27:22;;;;;;;24.02;15.50;;;27.90;55.90;;;;;;1889223;74;21546;-72
2021/11/30 10:29:54;;;;;;;23.30;16.25;;;27.80;55.40;;;;;;1911144;74;21595;-69
2021/11/30 10:32:27;;;;;;;25.52;16.37;;;27.80;55.60;;;;;;1913171;74;21076;-69
2021/11/30 10:35:00;;;;;;;27.67;17.15;;;27.70;55.80;;;;;;1918134;73;21256;-69
2021/11/30 10:37:31;;;;;;;30.43;17.70;;;27.70;55.90;;;;;;1883466;75;21093;-70
2021/11/30 10:40:04;;;;;;;23.60;17.40;;;27.70;56.30;;;;;;1838040;77;21155;-70
2021/11/30 10:42:35;;;;;;;24.18;17.32;;;27.70;56.50;;;;;;1849903;76;21605;-70
2021/11/30 10:45:06;;;;;;;23.92;16.52;;;27.60;56.70;;;;;;1864867;76;21201;-71
2021/11/30 10:47:37;;;;;;;26.02;17.90;;;27.50;56.90;;;;;;1954610;73;21168;-71
2021/11/30 10:50:14;;;;;;;28.02;18.27;;;27.50;57.10;;;;;;1910705;75;21054;-71
2021/11/30 10:52:46;;;;;;;;;;;27.40;57.30;;;;;;1925586;73;21816;-72
2021/11/30 10:55:18;;;;;;;29.12;20.30;;;27.40;57.30;;;;;;1875082;76;20415;-70
2021/11/30 10:57:50;;;;;;;30.37;21.70;;;27.40;57.60;;;;;;1939287;73;21154;-71
2021/11/30 11:00:30;;;;;;;31.33;18.55;;;27.40;57.90;;;;;;1922964;73;21089;-70
2021/11/30 11:05:39;;;;;;;33.05;20.05;;;27.30;58.00;;;;;;1919705;74;21181;-69
2021/11/30 11:08:11;;;;;;;30.88;21.82;;;27.30;58.20;;;;;;1928281;73;21135;-70
2021/11/30 11:10:44;;;;;;;25.05;17.25;;;27.30;58.40;;;;;;1912752;74;21567;-71
2021/11/30 11:13:17;;;;;;;31.82;17.77;;;27.30;58.50;;;;;;1924105;73;21217;-69
2021/11/30 11:15:52;;;;;;;28.10;17.73;;;27.20;58.70;;;;;;1883617;74;21714;-69
2021/11/30 11:18:28;;;;;;;23.42;16.32;;;27.20;58.80;;;;;;1925676;73;21101;-68
2021/11/30 11:21:02;;;;;;;28.25;17.05;;;27.20;59.10;;;;;;1931550;73;21178;-70
2021/11/30 11:23:32;;;;;;;23.98;17.02;;;27.10;59.10;;;;;;1923560;74;21096;-69
2021/11/30 11:26:05;;;;;;;21.77;16.07;;;27.10;59.40;;;;;;1922666;74;21151;-70
2021/11/30 11:28:37;;;;;;;23.50;16.05;;;27.00;59.20;;;;;;1926474;73;21241;-69
2021/11/30 11:31:08;;;;;;;25.75;17.12;;;27.00;59.60;;;;;;1924016;74;21081;-68
2021/11/30 11:33:39;;;;;;;24.92;17.60;;;27.00;59.50;;;;;;1930046;73;21642;-69
2021/11/30 11:36:10;;;;;;;29.18;20.00;;;26.90;59.70;;;;;;1925078;73;21092;-69
2021/11/30 11:38:41;;;;;;;29.18;20.15;;;26.90;59.70;;;;;;1923215;73;21160;-69
2021/11/30 11:41:12;;;;;;;27.48;18.90;;;26.90;59.60;;;;;;1926103;73;21221;-69
2021/11/30 11:43:44;;;;;;;34.15;23.45;;;26.80;59.60;;;;;;1925270;73;21685;-69
2021/11/30 11:46:17;;;;;;;33.38;24.05;;;26.80;60.00;;;;;;1914197;74;21130;-70
2021/11/30 11:48:49;;;;;;;31.62;20.88;;;26.80;60.10;;;;;;1910400;74;21154;-69
2021/11/30 11:51:20;;;;;;;33.33;20.00;;;26.80;59.90;;;;;;1903946;75;21128;-70
2021/11/30 11:53:54;;;;;;;29.60;21.15;;;26.80;60.10;;;;;;1903374;75;21092;-69
2021/11/30 11:56:27;;;;;;;31.95;20.70;;;26.80;60.20;;;;;;1905587;75;21157;-70
2021/11/30 11:59:00;;;;;;;29.72;20.92;;;26.80;60.20;;;;;;1905631;74;21140;-69
2021/11/30 12:01:31;;;;;;;29.10;21.62;;;26.80;60.20;;;;;;1907483;73;21463;-69
2021/11/30 12:04:03;;;;;;;35.45;24.95;;;26.80;60.00;;;;;;1909332;75;21079;-69
2021/11/30 12:06:36;;;;;;;41.95;23.65;;;26.80;60.30;;;;;;1900560;75;21139;-69
2021/11/30 12:09:09;;;;;;;34.10;22.85;;;26.80;60.40;;;;;;1917584;73;21146;-69
2021/11/30 12:11:42;;;;;;;34.70;23.42;;;26.80;60.50;;;;;;1896978;75;21650;-69
2021/11/30 12:14:15;;;;;;;39.85;24.00;;;26.70;60.40;;;;;;1907943;75;21213;-70
2021/11/30 12:16:48;;;;;;;38.63;24.65;;;26.70;60.70;;;;;;1903151;75;21146;-67
2021/11/30 12:19:22;;;;;;;39.60;25.35;;;26.70;61.10;;;;;;1903987;75;21614;-68
2021/11/30 12:21:54;;;;;;;37.98;26.02;;;26.70;61.40;;;;;;1910008;73;21544;-68
2021/11/30 12:24:27;;;;;;;35.65;24.35;;;26.60;61.60;;;;;;1890361;75;21078;-69
2021/11/30 12:26:58;;;;;;;38.58;24.47;;;26.60;61.80;;;;;;1913941;75;21134;-69
2021/11/30 12:29:30;;;;;;;36.20;25.00;;;26.60;61.90;;;;;;1915278;74;21456;-70
2021/11/30 12:32:02;;;;;;;34.25;24.00;;;26.50;62.20;;;;;;1906787;75;21565;-68
2021/11/30 12:34:35;;;;;;;34.65;23.45;;;26.50;61.90;;;;;;1907605;75;21131;-70
2021/11/30 12:37:09;;;;;;;41.25;23.50;;;26.50;62.40;;;;;;1913993;74;21599;-70
2021/11/30 12:39:42;;;;;;;30.65;23.15;;;26.40;62.40;;;;;;1914883;73;21119;-70
2021/11/30 12:42:13;;;;;;;33.02;23.70;;;26.40;62.10;;;;;;1917842;73;21167;-70
2021/11/30 12:44:44;;;;;;;35.43;22.98;;;26.40;62.40;;;;;;1914913;75;22411;-70
2021/11/30 12:47:18;;;;;;;36.40;23.18;;;26.40;62.30;;;;;;1917348;75;21654;-70
2021/11/30 12:49:48;;;;;;;31.37;21.87;;;26.30;62.40;;;;;;1957273;73;21157;-70
2021/11/30 12:52:26;;;;;;;35.45;22.87;;;26.30;62.10;;;;;;1961192;73;21165;-70
2021/11/30 12:55:01;;;;;;;35.55;23.42;;;26.20;62.20;;;;;;1921298;73;21753;-70
2021/11/30 12:57:31;;;;;;;31.15;21.82;;;26.20;62.10;;;;;;1861138;76;21586;-70
2021/11/30 13:00:05;;;;;;;35.92;23.30;;;26.20;62.10;;;;;;1867784;76;21146;-70
2021/11/30 13:02:39;;;;;;;40.65;28.92;;;26.20;62.50;;;;;;1875191;76;21200;-70
2021/11/30 13:05:09;;;;;;;40.33;25.27;;;26.10;62.20;;;;;;1876192;76;21760;-69
2021/11/30 13:07:41;;;;;;;30.55;21.77;;;26.10;62.30;;;;;;1885192;74;21115;-70
2021/11/30 13:10:14;;;;;;;30.17;21.82;;;26.00;62.30;;;;;;1896751;74;21224;-70
2021/11/30 13:12:45;;;;;;;37.20;22.90;;;26.00;62.50;;;;;;1874148;76;21197;-69
2021/11/30 13:15:18;;;;;;;30.32;21.12;;;25.90;62.70;;;;;;1912190;75;21178;-70